Time;durP1;ratioP1;P1;durP2;ratioP2;P2;SDS_P1;SDS_P2;PMS_P1;PMS_P2;Temp;Humidity;BMP_temperature;BMP_pressure;BME280_temperature;BME280_humidity;BME280_pressure;Samples;Min_cycle;Max_cycle;Signal;HPM_P1;HPM_P2
2023/04/23 00:00:40;;;;;;;25.20;13.63;;;9.00;99.90;;;;;;5076239;28;20128;-89
2023/04/23 00:03:09;;;;;;;26.98;15.80;;;9.00;99.90;;;;;;5059253;28;20486;-89
2023/04/23 00:05:36;;;;;;;28.58;16.17;;;9.00;99.90;;;;;;5076270;28;20051;-90
2023/04/23 00:08:02;;;;;;;26.52;16.45;;;9.00;99.90;;;;;;5059606;28;20519;-89
2023/04/23 00:10:28;;;;;;;26.55;15.48;;;8.90;99.90;;;;;;5059230;28;20096;-90
2023/04/23 00:12:54;;;;;;;27.48;15.90;;;8.90;99.90;;;;;;5059871;28;20048;-89
2023/04/23 00:15:21;;;;;;;26.23;14.65;;;8.90;99.90;;;;;;5059320;28;20040;-89
2023/04/23 00:17:47;;;;;;;24.60;14.68;;;8.90;99.90;;;;;;5059386;28;20092;-89
2023/04/23 00:20:13;;;;;;;23.95;14.55;;;8.90;99.90;;;;;;5058971;28;20489;-89
2023/04/23 00:22:39;;;;;;;26.27;14.75;;;8.90;99.90;;;;;;5059209;28;20050;-89
2023/04/23 00:25:05;;;;;;;27.40;15.65;;;8.80;99.90;;;;;;5076084;28;20032;-89
2023/04/23 00:27:31;;;;;;;27.85;15.77;;;8.80;99.90;;;;;;5059803;28;20048;-89
2023/04/23 00:29:56;;;;;;;28.50;16.73;;;8.80;99.90;;;;;;5076171;28;20044;-89
2023/04/23 00:32:23;;;;;;;26.00;15.77;;;8.80;99.90;;;;;;5060238;28;20040;-89
2023/04/23 00:34:49;;;;;;;28.50;15.55;;;8.80;99.90;;;;;;5061092;28;20413;-89
2023/04/23 00:37:15;;;;;;;27.73;15.85;;;8.80;99.90;;;;;;5059162;28;20134;-89
2023/04/23 00:39:41;;;;;;;29.55;17.90;;;8.80;99.90;;;;;;5075587;28;20115;-89
2023/04/23 00:42:10;;;;;;;30.05;17.50;;;8.80;99.90;;;;;;5059015;28;20043;-89
2023/04/23 00:44:36;;;;;;;31.38;18.27;;;8.80;99.90;;;;;;5058975;28;20036;-89
2023/04/23 00:47:02;;;;;;;29.88;17.77;;;8.80;99.90;;;;;;5075699;28;20081;-89
2023/04/23 00:49:28;;;;;;;30.35;18.08;;;8.80;99.90;;;;;;5075211;28;20036;-89
2023/04/23 00:51:54;;;;;;;31.70;17.63;;;8.80;99.90;;;;;;5056794;28;20040;-89
2023/04/23 00:54:20;;;;;;;33.03;19.52;;;8.80;99.90;;;;;;5057959;28;20054;-89
2023/04/23 00:56:50;;;;;;;33.28;18.42;;;8.80;99.90;;;;;;5059218;28;20033;-90
2023/04/23 00:59:15;;;;;;;34.70;20.55;;;8.80;99.90;;;;;;5058371;28;20505;-89
2023/04/23 01:01:44;;;;;;;32.50;18.98;;;8.80;99.90;;;;;;5058332;28;20127;-89
2023/04/23 01:04:15;;;;;;;35.08;20.05;;;8.80;99.90;;;;;;5057492;28;20047;-89
2023/04/23 01:06:41;;;;;;;38.78;21.73;;;8.80;99.90;;;;;;5057656;28;20028;-89
2023/04/23 01:09:08;;;;;;;42.47;23.25;;;8.80;99.90;;;;;;5074277;28;20047;-89
2023/04/23 01:11:38;;;;;;;41.75;22.75;;;8.70;99.90;;;;;;5074155;28;20069;-89
2023/04/23 01:14:03;;;;;;;39.38;23.67;;;8.70;99.90;;;;;;5074422;28;20043;-89
2023/04/23 01:16:29;;;;;;;42.60;23.52;;;8.70;99.90;;;;;;5075455;28;20044;-89
2023/04/23 01:18:55;;;;;;;46.50;24.67;;;8.70;99.90;;;;;;5074561;28;20032;-89
2023/04/23 01:21:22;;;;;;;42.75;22.98;;;8.70;99.90;;;;;;5074794;28;20035;-89
2023/04/23 01:23:48;;;;;;;42.63;23.40;;;8.60;99.90;;;;;;5058368;28;20097;-90
2023/04/23 01:26:14;;;;;;;45.72;25.00;;;8.60;99.90;;;;;;5074948;28;20122;-89
2023/04/23 01:28:42;;;;;;;47.08;26.42;;;8.70;99.90;;;;;;5074955;28;20067;-88
2023/04/23 01:31:08;;;;;;;45.28;25.13;;;8.60;99.90;;;;;;5074725;28;20102;-89
2023/04/23 01:33:34;;;;;;;46.42;26.08;;;8.70;99.90;;;;;;5074455;28;20500;-90
2023/04/23 01:36:01;;;;;;;46.95;25.73;;;8.60;99.90;;;;;;5074763;28;20035;-89
2023/04/23 01:38:30;;;;;;;47.08;26.00;;;8.70;99.90;;;;;;5058110;28;20055;-89
2023/04/23 01:40:55;;;;;;;48.33;27.02;;;8.70;99.90;;;;;;5057633;28;20031;-89
2023/04/23 01:43:21;;;;;;;57.42;28.98;;;8.60;99.90;;;;;;5058019;28;20058;-89
2023/04/23 01:45:47;;;;;;;55.33;29.40;;;8.60;99.90;;;;;;5074540;28;20109;-89
2023/04/23 01:48:13;;;;;;;60.55;30.08;;;8.70;99.90;;;;;;5058452;28;20721;-89
2023/04/23 01:50:39;;;;;;;56.60;30.80;;;8.60;99.90;;;;;;5057043;28;20039;-89
2023/04/23 01:53:05;;;;;;;57.67;31.10;;;8.60;99.90;;;;;;5073401;28;20067;-89
2023/04/23 01:55:31;;;;;;;60.45;31.10;;;8.70;99.90;;;;;;5073678;28;20078;-89
2023/04/23 01:57:57;;;;;;;68.18;36.20;;;8.70;99.90;;;;;;5056590;28;20051;-89
2023/04/23 02:00:23;;;;;;;67.80;35.65;;;8.70;99.90;;;;;;5073608;28;20044;-89
2023/04/23 02:02:51;;;;;;;59.10;33.28;;;8.70;99.90;;;;;;5073813;28;20047;-88
2023/04/23 02:05:18;;;;;;;65.75;33.25;;;8.70;99.90;;;;;;5074540;28;20054;-89
2023/04/23 02:07:45;;;;;;;69.13;36.65;;;8.70;99.90;;;;;;5074221;28;20043;-89
2023/04/23 02:10:11;;;;;;;66.32;35.03;;;8.70;99.90;;;;;;5056807;28;20047;-88
2023/04/23 02:12:37;;;;;;;67.75;36.00;;;8.70;99.90;;;;;;5057547;28;20170;-89
2023/04/23 02:15:05;;;;;;;61.72;33.53;;;8.70;99.90;;;;;;5073231;28;20536;-89
2023/04/23 02:17:31;;;;;;;62.15;33.92;;;8.70;99.90;;;;;;5073404;28;20040;-89
2023/04/23 02:19:57;;;;;;;68.35;36.88;;;8.80;99.90;;;;;;5056218;28;20580;-89
2023/04/23 02:22:24;;;;;;;64.50;34.00;;;8.80;99.90;;;;;;5056702;28;20044;-89
2023/04/23 02:24:53;;;;;;;65.47;33.80;;;8.80;99.90;;;;;;5073882;28;20040;-89
2023/04/23 02:27:20;;;;;;;64.70;35.13;;;8.80;99.90;;;;;;5057771;28;20149;-89
2023/04/23 02:29:47;;;;;;;63.88;34.60;;;8.80;99.90;;;;;;5057154;28;20074;-89
2023/04/23 02:32:12;;;;;;;53.67;31.20;;;8.80;99.90;;;;;;5056713;28;20036;-89
2023/04/23 02:34:38;;;;;;;59.17;32.95;;;8.80;99.90;;;;;;5056530;28;20047;-89
2023/04/23 02:37:04;;;;;;;51.75;28.33;;;8.70;99.90;;;;;;5073391;28;20126;-89
2023/04/23 02:39:30;;;;;;;61.38;33.83;;;8.70;99.90;;;;;;5073361;28;20443;-89
2023/04/23 02:41:57;;;;;;;64.57;31.88;;;8.70;99.90;;;;;;5057368;28;20043;-90
2023/04/23 02:44:23;;;;;;;54.60;31.35;;;8.70;99.90;;;;;;5073939;28;20044;-89
2023/04/23 02:46:49;;;;;;;50.08;28.35;;;8.70;99.90;;;;;;5057438;28;20039;-89
2023/04/23 02:49:15;;;;;;;52.97;30.27;;;8.60;99.90;;;;;;5073632;28;20040;-89
2023/04/23 02:51:40;;;;;;;49.53;27.75;;;8.60;99.90;;;;;;5056857;28;20047;-89
2023/04/23 02:54:06;;;;;;;40.38;24.55;;;8.60;99.90;;;;;;5057185;28;20036;-90
2023/04/23 02:56:32;;;;;;;41.83;23.98;;;8.60;99.90;;;;;;5057255;28;20040;-89
2023/04/23 02:58:57;;;;;;;35.03;20.90;;;8.50;99.90;;;;;;5057121;28;20044;-89
2023/04/23 03:01:23;;;;;;;27.20;17.50;;;8.50;99.90;;;;;;5073354;28;20504;-89
2023/04/23 03:03:49;;;;;;;29.60;17.95;;;8.40;99.90;;;;;;5056384;28;20032;-89
2023/04/23 03:06:14;;;;;;;31.55;19.88;;;8.40;99.90;;;;;;5056314;28;20040;-89
2023/04/23 03:08:40;;;;;;;32.85;19.38;;;8.40;99.90;;;;;;5055730;28;20043;-89
2023/04/23 03:11:06;;;;;;;33.33;18.65;;;8.30;99.90;;;;;;5056323;28;20040;-88
2023/04/23 03:13:31;;;;;;;30.15;17.67;;;8.30;99.90;;;;;;5056907;28;20123;-89
2023/04/23 03:15:57;;;;;;;29.48;17.60;;;8.30;99.90;;;;;;5060432;28;20443;-89
2023/04/23 03:18:23;;;;;;;29.08;17.85;;;8.20;99.90;;;;;;5060265;28;20068;-89
2023/04/23 03:20:49;;;;;;;31.25;18.92;;;8.20;99.90;;;;;;5076726;28;20125;-89
2023/04/23 03:23:14;;;;;;;29.42;17.98;;;8.20;99.90;;;;;;5060656;28;20067;-89
2023/04/23 03:25:40;;;;;;;34.45;18.92;;;8.10;99.90;;;;;;5060502;28;20032;-89
2023/04/23 03:28:05;;;;;;;33.40;19.85;;;8.10;99.90;;;;;;5060583;28;20064;-89
2023/04/23 03:30:32;;;;;;;35.67;20.48;;;8.10;99.90;;;;;;5076901;28;20040;-89
2023/04/23 03:32:58;;;;;;;42.65;23.27;;;8.10;99.90;;;;;;5059582;28;20052;-89
2023/04/23 03:35:25;;;;;;;44.50;23.80;;;8.10;99.90;;;;;;5059250;28;20496;-89
2023/04/23 03:37:50;;;;;;;47.10;26.98;;;8.10;99.90;;;;;;5076114;28;20504;-89
2023/04/23 03:40:18;;;;;;;40.17;24.17;;;8.10;99.90;;;;;;5075502;28;20041;-89
2023/04/23 03:42:44;;;;;;;41.00;23.05;;;8.10;99.90;;;;;;5060631;28;20087;-89
2023/04/23 03:45:12;;;;;;;42.08;24.70;;;8.10;99.90;;;;;;5060132;28;20028;-89
2023/04/23 03:47:38;;;;;;;38.95;23.55;;;8.10;99.90;;;;;;5060016;28;20036;-88
2023/04/23 03:50:05;;;;;;;48.38;26.42;;;8.10;99.90;;;;;;5076406;28;20040;-89
2023/04/23 03:52:31;;;;;;;40.58;23.40;;;8.10;99.90;;;;;;5060392;28;20039;-89
2023/04/23 03:54:56;;;;;;;43.60;25.40;;;8.10;99.90;;;;;;5060000;28;20591;-89
2023/04/23 03:57:22;;;;;;;38.42;23.30;;;8.10;99.90;;;;;;5059964;28;20040;-89
2023/04/23 03:59:48;;;;;;;41.53;26.08;;;8.00;99.90;;;;;;5059455;28;20513;-89
2023/04/23 04:02:13;;;;;;;46.05;24.80;;;8.00;99.90;;;;;;5058979;28;20196;-91
2023/04/23 04:04:39;;;;;;;43.35;24.85;;;8.00;99.90;;;;;;5058740;28;20039;-90
2023/04/23 04:07:06;;;;;;;52.00;28.48;;;8.00;99.90;;;;;;5058688;28;20043;-91
2023/04/23 04:09:32;;;;;;;51.97;27.42;;;8.00;99.90;;;;;;5074982;28;20093;-91
2023/04/23 04:11:57;;;;;;;49.72;28.30;;;8.00;99.90;;;;;;5075952;28;20048;-91
2023/04/23 04:14:23;;;;;;;53.50;29.63;;;8.00;99.90;;;;;;5059609;28;20044;-90
2023/04/23 04:16:48;;;;;;;50.97;27.33;;;8.10;99.90;;;;;;5059149;28;20532;-90
2023/04/23 04:19:15;;;;;;;52.83;29.92;;;8.00;99.90;;;;;;5075776;28;20054;-91
2023/04/23 04:21:40;;;;;;;52.40;28.95;;;8.10;99.90;;;;;;5075846;28;20078;-90
2023/04/23 04:24:06;;;;;;;55.85;29.42;;;8.10;99.90;;;;;;5059022;28;20071;-91
2023/04/23 04:26:33;;;;;;;54.80;31.08;;;8.10;99.90;;;;;;5059204;28;20118;-91
2023/04/23 04:29:00;;;;;;;57.40;31.42;;;8.10;99.90;;;;;;5059216;28;20044;-90
2023/04/23 04:31:27;;;;;;;59.33;32.10;;;8.10;99.90;;;;;;5058021;28;20131;-91
2023/04/23 04:33:56;;;;;;;65.38;33.50;;;8.20;99.90;;;;;;5057940;28;20032;-91
2023/04/23 04:36:24;;;;;;;57.90;32.13;;;8.20;99.90;;;;;;5058180;28;20085;-90
2023/04/23 04:38:54;;;;;;;62.22;32.42;;;8.20;99.90;;;;;;5058129;28;20570;-91
2023/04/23 04:41:21;;;;;;;55.83;31.30;;;8.20;99.90;;;;;;5075609;28;20071;-90
2023/04/23 04:43:47;;;;;;;56.97;31.02;;;8.30;99.90;;;;;;5075389;28;20493;-90
2023/04/23 04:46:14;;;;;;;57.80;31.85;;;8.30;99.90;;;;;;5058868;28;20451;-91
2023/04/23 04:48:40;;;;;;;63.08;32.63;;;8.30;99.90;;;;;;5058992;28;20043;-90
2023/04/23 04:51:06;;;;;;;70.50;35.60;;;8.30;99.90;;;;;;5058561;28;20401;-91
2023/04/23 04:53:32;;;;;;;62.80;34.50;;;8.30;99.90;;;;;;5075536;28;20088;-91
2023/04/23 04:55:57;;;;;;;64.95;34.22;;;8.40;99.90;;;;;;5058884;28;20044;-91
2023/04/23 04:58:23;;;;;;;69.97;36.15;;;8.40;99.90;;;;;;5075191;28;20565;-91
2023/04/23 05:00:50;;;;;;;59.90;33.10;;;8.40;99.90;;;;;;5058204;28;20036;-90
2023/04/23 05:03:17;;;;;;;63.47;33.97;;;8.50;99.90;;;;;;5074324;28;20035;-90
2023/04/23 05:05:44;;;;;;;67.75;35.58;;;8.50;99.90;;;;;;5056979;28;20071;-90
2023/04/23 05:08:10;;;;;;;61.55;32.90;;;8.60;99.90;;;;;;5069599;28;20078;-90
2023/04/23 05:10:36;;;;;;;65.90;34.92;;;8.60;99.90;;;;;;5073634;28;20075;-91
2023/04/23 05:13:01;;;;;;;63.58;35.13;;;8.60;99.90;;;;;;5058078;28;20048;-90
2023/04/23 05:15:27;;;;;;;62.60;34.80;;;8.70;99.90;;;;;;5057674;28;20138;-91
2023/04/23 05:17:53;;;;;;;64.70;35.25;;;8.70;99.90;;;;;;5074822;28;20050;-90
2023/04/23 05:20:19;;;;;;;69.75;36.42;;;8.70;99.90;;;;;;5074252;28;20489;-90
2023/04/23 05:22:47;;;;;;;65.15;34.10;;;8.80;99.90;;;;;;5058226;28;20052;-90
2023/04/23 05:25:13;;;;;;;70.50;37.53;;;8.80;99.90;;;;;;5057728;28;20040;-90
2023/04/23 05:27:39;;;;;;;60.25;31.25;;;8.80;99.90;;;;;;5074372;28;20043;-90
2023/04/23 05:30:08;;;;;;;66.63;35.20;;;8.90;99.90;;;;;;5057435;28;20036;-90
2023/04/23 05:32:34;;;;;;;67.60;35.38;;;8.90;99.90;;;;;;5057632;28;20086;-90
2023/04/23 05:35:01;;;;;;;71.55;35.05;;;8.90;99.90;;;;;;5056913;28;20062;-90
2023/04/23 05:37:28;;;;;;;65.85;32.88;;;9.00;99.90;;;;;;5057168;28;20036;-90
2023/04/23 05:39:53;;;;;;;66.00;33.83;;;9.00;99.90;;;;;;5073036;28;20040;-90
2023/04/23 05:42:19;;;;;;;60.15;33.63;;;9.00;99.90;;;;;;5056563;28;20059;-90
2023/04/23 05:44:45;;;;;;;66.53;34.47;;;9.10;99.90;;;;;;5073103;28;20036;-90
2023/04/23 05:47:12;;;;;;;63.22;32.63;;;9.10;99.90;;;;;;5056331;28;20043;-90
2023/04/23 05:49:38;;;;;;;67.40;34.53;;;9.10;99.90;;;;;;5073696;28;20040;-90
2023/04/23 05:52:04;;;;;;;57.78;31.85;;;9.10;99.90;;;;;;5073921;28;20088;-90
2023/04/23 05:54:30;;;;;;;67.60;35.13;;;9.20;99.90;;;;;;5073820;28;20040;-90
2023/04/23 05:56:55;;;;;;;65.55;35.10;;;9.20;99.90;;;;;;5057554;28;20044;-90
2023/04/23 05:59:21;;;;;;;58.17;31.05;;;9.20;99.90;;;;;;5073946;28;20043;-90
2023/04/23 06:01:48;;;;;;;61.28;31.65;;;9.30;99.90;;;;;;5057007;28;20043;-91
2023/04/23 06:04:14;;;;;;;61.47;32.45;;;9.30;99.90;;;;;;5073407;28;20043;-91
2023/04/23 06:06:41;;;;;;;60.58;33.33;;;9.40;99.90;;;;;;5057312;28;20077;-90
2023/04/23 06:09:07;;;;;;;58.25;31.98;;;9.40;99.90;;;;;;5057254;28;20481;-90
2023/04/23 06:11:34;;;;;;;63.28;31.48;;;9.50;99.90;;;;;;5056492;28;20065;-90
2023/04/23 06:14:01;;;;;;;62.22;32.53;;;9.50;99.90;;;;;;5073589;28;20101;-90
2023/04/23 06:16:27;;;;;;;58.20;31.00;;;9.60;99.90;;;;;;5055258;28;20039;-91
2023/04/23 06:18:55;;;;;;;58.03;30.88;;;9.70;99.90;;;;;;5072189;28;20134;-90
2023/04/23 06:21:21;;;;;;;59.90;30.08;;;9.70;99.90;;;;;;5072833;28;20055;-90
2023/04/23 06:23:47;;;;;;;54.50;29.52;;;9.80;99.90;;;;;;5056416;28;20036;-89
2023/04/23 06:26:12;;;;;;;59.22;32.78;;;9.90;99.90;;;;;;5072920;28;20471;-90
2023/04/23 06:28:41;;;;;;;57.67;31.08;;;10.00;99.90;;;;;;5056579;28;20394;-90
2023/04/23 06:31:07;;;;;;;53.70;30.00;;;10.10;99.90;;;;;;5073454;28;20375;-91
2023/04/23 06:33:33;;;;;;;60.78;31.75;;;10.20;99.90;;;;;;5055896;28;20500;-90
2023/04/23 06:35:59;;;;;;;51.25;29.02;;;10.20;99.90;;;;;;5073689;28;20074;-90
2023/04/23 06:38:25;;;;;;;52.90;29.38;;;10.30;99.90;;;;;;5073772;28;20044;-90
2023/04/23 06:40:51;;;;;;;54.25;31.23;;;10.30;99.90;;;;;;5056781;28;20047;-90
2023/04/23 06:43:16;;;;;;;50.20;28.80;;;10.40;99.90;;;;;;5056773;28;20032;-90
2023/04/23 06:45:42;;;;;;;51.17;29.38;;;10.50;99.90;;;;;;5072317;28;20043;-91
2023/04/23 06:48:07;;;;;;;50.88;29.77;;;10.50;99.90;;;;;;5056334;28;20040;-90
2023/04/23 06:50:33;;;;;;;45.35;27.50;;;10.60;99.90;;;;;;5060071;28;20124;-91
2023/04/23 06:52:59;;;;;;;47.80;26.52;;;10.60;99.90;;;;;;5076685;28;20062;-90
2023/04/23 06:55:25;;;;;;;45.13;26.48;;;10.70;99.90;;;;;;5061034;28;20405;-91
2023/04/23 06:57:54;;;;;;;47.33;26.90;;;10.80;99.90;;;;;;5060721;28;20089;-91
2023/04/23 07:00:21;;;;;;;46.55;25.27;;;10.90;99.90;;;;;;5060187;28;20085;-91
2023/04/23 07:02:47;;;;;;;42.22;24.98;;;11.00;99.90;;;;;;5060374;28;20122;-91
2023/04/23 07:05:13;;;;;;;46.00;24.35;;;11.00;99.90;;;;;;5060588;28;20063;-92
2023/04/23 07:07:39;;;;;;;42.47;24.25;;;11.10;99.90;;;;;;5076969;28;20045;-91
2023/04/23 07:10:05;;;;;;;40.78;23.50;;;11.20;99.90;;;;;;5060706;28;20035;-91
2023/04/23 07:12:31;;;;;;;37.08;22.90;;;11.30;99.90;;;;;;5060728;28;20032;-91
2023/04/23 07:14:57;;;;;;;36.45;22.35;;;11.40;99.90;;;;;;5059490;28;20429;-90
2023/04/23 07:17:22;;;;;;;34.38;22.48;;;11.50;99.90;;;;;;5059590;28;20036;-92
2023/04/23 07:19:48;;;;;;;40.53;23.25;;;11.60;99.90;;;;;;5076061;28;20039;-92
2023/04/23 07:22:14;;;;;;;37.13;24.02;;;11.70;99.90;;;;;;5076314;28;20658;-92
2023/04/23 07:24:40;;;;;;;38.80;24.05;;;11.80;99.90;;;;;;5059597;28;20032;-92
2023/04/23 07:27:06;;;;;;;33.40;21.80;;;11.90;99.90;;;;;;5077132;28;20043;-92
2023/04/23 07:29:32;;;;;;;34.83;21.92;;;11.90;99.90;;;;;;5060042;28;20048;-91
2023/04/23 07:31:58;;;;;;;38.72;22.90;;;11.90;99.90;;;;;;5060100;28;20474;-92
2023/04/23 07:34:23;;;;;;;35.92;21.67;;;11.90;99.90;;;;;;5060266;28;20135;-92
2023/04/23 07:36:50;;;;;;;38.10;21.42;;;11.90;99.90;;;;;;5058787;28;20036;-92
2023/04/23 07:39:16;;;;;;;38.80;23.10;;;11.90;99.90;;;;;;5058201;28;20119;-92
2023/04/23 07:41:42;;;;;;;35.88;22.88;;;11.80;99.90;;;;;;5058625;28;20139;-92
2023/04/23 07:44:08;;;;;;;34.28;22.42;;;11.80;99.90;;;;;;5075824;28;20472;-91
2023/04/23 07:46:33;;;;;;;34.67;22.30;;;11.80;99.90;;;;;;5076268;28;20036;-89
2023/04/23 07:48:59;;;;;;;34.13;22.00;;;11.70;99.90;;;;;;5059252;28;20524;-89
2023/04/23 07:51:25;;;;;;;36.85;22.70;;;11.70;99.90;;;;;;5059658;28;20086;-91
2023/04/23 07:53:55;;;;;;;37.60;23.00;;;11.70;99.90;;;;;;5060030;28;20044;-89
2023/04/23 07:56:23;;;;;;;36.97;21.90;;;11.80;99.90;;;;;;5059460;28;20508;-89
2023/04/23 07:58:49;;;;;;;40.05;25.13;;;11.80;99.90;;;;;;5076521;28;20040;-88
2023/04/23 08:01:15;;;;;;;41.22;25.08;;;12.00;99.90;;;;;;5074486;28;20040;-90
2023/04/23 08:03:41;;;;;;;42.70;26.50;;;12.10;99.90;;;;;;5058510;28;20040;-88
2023/04/23 08:06:09;;;;;;;36.90;22.92;;;12.20;99.90;;;;;;5058251;28;20051;-89
2023/04/23 08:08:34;;;;;;;34.35;22.83;;;12.30;99.90;;;;;;5072600;28;20028;-89
2023/04/23 08:11:00;;;;;;;33.28;22.02;;;12.30;99.90;;;;;;5066773;28;20544;-89
2023/04/23 08:13:26;;;;;;;33.67;22.48;;;12.40;99.90;;;;;;5068663;28;20075;-88
2023/04/23 08:15:52;;;;;;;33.55;22.15;;;12.50;99.90;;;;;;5079411;28;20036;-89
2023/04/23 08:18:17;;;;;;;36.88;22.98;;;12.50;99.90;;;;;;5067741;28;20036;-89
2023/04/23 08:20:43;;;;;;;37.75;24.70;;;12.60;99.90;;;;;;5069110;28;20042;-89
2023/04/23 08:23:08;;;;;;;35.90;23.13;;;12.70;99.90;;;;;;5085821;28;20067;-88
2023/04/23 08:25:34;;;;;;;36.13;32.42;;;12.80;99.90;;;;;;5067961;28;20036;-89
2023/04/23 08:28:00;;;;;;;30.25;20.20;;;12.90;99.90;;;;;;5084627;28;20028;-89
2023/04/23 08:30:25;;;;;;;33.10;21.08;;;12.90;99.90;;;;;;5085402;28;20031;-89
2023/04/23 08:32:55;;;;;;;30.33;21.48;;;13.00;99.90;;;;;;5086046;28;20047;-89
2023/04/23 08:35:22;;;;;;;29.70;19.70;;;13.00;99.90;;;;;;5081415;28;20130;-89
2023/04/23 08:37:47;;;;;;;28.70;18.95;;;13.00;99.90;;;;;;5083242;28;20176;-90
2023/04/23 08:40:13;;;;;;;29.75;21.23;;;13.10;99.90;;;;;;5085190;28;20377;-89
2023/04/23 08:42:47;;;;;;;31.38;19.33;;;13.10;99.90;;;;;;5067857;28;20041;-89
2023/04/23 08:45:13;;;;;;;29.38;19.95;;;13.20;99.90;;;;;;5068170;28;20043;-90
2023/04/23 08:47:41;;;;;;;27.95;19.70;;;13.30;99.90;;;;;;5086778;28;20099;-90
2023/04/23 08:50:10;;;;;;;26.90;20.05;;;13.30;99.90;;;;;;5083540;28;20492;-89
2023/04/23 08:52:40;;;;;;;29.25;21.58;;;13.40;99.90;;;;;;5066666;28;20040;-89
2023/04/23 08:55:09;;;;;;;25.63;17.85;;;13.60;99.90;;;;;;5069260;28;20065;-89
2023/04/23 08:57:37;;;;;;;25.52;17.60;;;13.60;99.90;;;;;;5069583;28;20541;-90
2023/04/23 09:00:05;;;;;;;22.15;14.88;;;13.70;99.90;;;;;;5084386;28;20554;-89
2023/04/23 09:02:32;;;;;;;23.58;15.88;;;13.80;99.90;;;;;;5067748;28;20173;-90
2023/04/23 09:04:58;;;;;;;24.42;18.30;;;13.90;99.90;;;;;;5083523;28;20123;-89
2023/04/23 09:07:24;;;;;;;23.85;18.05;;;14.00;99.90;;;;;;5085373;28;20067;-90
2023/04/23 09:09:50;;;;;;;25.27;22.77;;;14.10;99.90;;;;;;5064240;28;20118;-90
2023/04/23 09:12:16;;;;;;;21.58;19.15;;;14.20;99.90;;;;;;5084668;28;20479;-90
2023/04/23 09:14:41;;;;;;;21.05;13.52;;;14.30;99.90;;;;;;5067055;28;20036;-90
2023/04/23 09:17:07;;;;;;;20.48;18.38;;;14.40;99.90;;;;;;5078761;28;20036;-91
2023/04/23 09:19:33;;;;;;;17.40;11.40;;;14.40;99.90;;;;;;5074137;28;20032;-90
2023/04/23 09:22:01;;;;;;;17.15;10.80;;;14.50;99.90;;;;;;5074204;28;20436;-90
2023/04/23 09:24:27;;;;;;;15.18;8.68;;;14.60;99.90;;;;;;5074209;28;20028;-90
2023/04/23 09:26:53;;;;;;;19.27;17.27;;;14.70;99.90;;;;;;5058082;28;20110;-90
2023/04/23 09:29:23;;;;;;;17.83;12.98;;;14.80;99.90;;;;;;5057652;28;20072;-88
2023/04/23 09:31:52;;;;;;;18.17;14.13;;;14.90;99.90;;;;;;5073218;28;20040;-90
2023/04/23 09:34:19;;;;;;;20.50;14.13;;;15.00;99.90;;;;;;5074329;28;20071;-89
2023/04/23 09:36:48;;;;;;;16.83;11.27;;;15.00;99.90;;;;;;5057596;28;20050;-90
2023/04/23 09:39:15;;;;;;;17.08;13.57;;;15.10;99.90;;;;;;5057827;28;20226;-89
2023/04/23 09:41:41;;;;;;;14.55;7.90;;;15.20;99.90;;;;;;5057398;28;20534;-89
2023/04/23 09:44:07;;;;;;;13.65;7.47;;;15.20;99.90;;;;;;5057435;28;20040;-89
2023/04/23 09:46:38;;;;;;;14.93;12.25;;;15.30;99.90;;;;;;5075889;28;20081;-90
2023/04/23 09:49:09;;;;;;;16.77;11.70;;;15.40;99.90;;;;;;5065967;28;20500;-89
2023/04/23 09:51:42;;;;;;;15.80;8.85;;;15.60;99.90;;;;;;5061399;28;20457;-90
2023/04/23 09:54:22;;;;;;;14.27;11.43;;;15.60;99.90;;;;;;5057782;28;20432;-90
2023/04/23 09:56:55;;;;;;;14.63;11.30;;;15.80;99.90;;;;;;5057628;28;20069;-90
2023/04/23 09:59:29;;;;;;;14.40;11.45;;;15.90;99.90;;;;;;5092117;28;20105;-90
2023/04/23 10:01:55;;;;;;;13.82;9.90;;;16.10;99.90;;;;;;5057664;28;20036;-90
2023/04/23 10:04:22;;;;;;;14.10;9.57;;;16.20;99.90;;;;;;5074203;28;20520;-89
2023/04/23 10:07:00;;;;;;;12.38;6.93;;;16.20;99.90;;;;;;5073876;28;20040;-89
2023/04/23 10:09:27;;;;;;;12.32;8.52;;;16.20;99.90;;;;;;5057116;28;20451;-89
2023/04/23 10:11:55;;;;;;;12.68;9.20;;;16.30;99.90;;;;;;5055838;28;20040;-89
2023/04/23 10:14:22;;;;;;;13.98;8.02;;;16.30;99.90;;;;;;5056974;28;20044;-90
2023/04/23 10:16:50;;;;;;;11.35;6.15;;;16.40;99.90;;;;;;5057710;28;20378;-89
2023/04/23 10:19:21;;;;;;;12.27;8.27;;;16.30;99.90;;;;;;5057099;28;20043;-90
2023/04/23 10:22:00;;;;;;;11.90;6.63;;;16.40;99.90;;;;;;5073749;28;20043;-90
2023/04/23 10:24:29;;;;;;;11.82;6.13;;;16.60;99.90;;;;;;5062101;28;20097;-89
2023/04/23 10:27:01;;;;;;;11.07;5.13;;;16.70;99.90;;;;;;5080786;28;20051;-90
2023/04/23 10:29:35;;;;;;;11.82;4.82;;;16.80;98.60;;;;;;5063939;28;20051;-90
2023/04/23 10:32:05;;;;;;;10.25;5.32;;;16.90;99.90;;;;;;5064235;28;20163;-90
2023/04/23 10:34:32;;;;;;;11.80;5.13;;;17.00;99.90;;;;;;5063649;28;20040;-90
2023/04/23 10:36:59;;;;;;;11.07;3.58;;;17.10;97.30;;;;;;5064047;28;20451;-90
2023/04/23 10:39:31;;;;;;;11.50;5.00;;;17.10;95.30;;;;;;5080787;28;20062;-90
2023/04/23 10:41:58;;;;;;;9.80;4.80;;;17.10;92.80;;;;;;5064339;28;20075;-90
2023/04/23 10:44:32;;;;;;;11.45;4.95;;;17.10;91.50;;;;;;5080250;28;20798;-91
2023/04/23 10:46:59;;;;;;;9.82;4.43;;;17.20;92.00;;;;;;5080676;28;20039;-90
2023/04/23 10:49:32;;;;;;;9.90;4.07;;;17.30;90.80;;;;;;5063110;28;20047;-90
2023/04/23 10:52:02;;;;;;;10.27;3.92;;;17.40;91.00;;;;;;5080384;28;20043;-90
2023/04/23 10:54:32;;;;;;;9.25;3.67;;;17.50;91.30;;;;;;5080577;28;20105;-90
2023/04/23 10:57:08;;;;;;;10.95;4.30;;;17.50;88.10;;;;;;5080367;28;20187;-91
2023/04/23 10:59:37;;;;;;;10.88;4.10;;;17.50;88.20;;;;;;5063539;28;20036;-91
2023/04/23 11:02:08;;;;;;;8.85;3.88;;;17.40;86.00;;;;;;5097238;28;20367;-92
2023/04/23 11:04:35;;;;;;;8.50;3.40;;;17.50;86.30;;;;;;5063784;28;20036;-92
2023/04/23 11:07:09;;;;;;;9.65;3.85;;;17.60;87.50;;;;;;5080233;28;20035;-91
2023/04/23 11:09:39;;;;;;;9.00;3.60;;;17.60;85.40;;;;;;5071966;28;20036;-91
2023/04/23 11:12:10;;;;;;;8.75;3.35;;;17.50;84.30;;;;;;5085701;28;20054;-91
2023/04/23 11:14:46;;;;;;;9.68;3.65;;;17.60;82.00;;;;;;5073002;28;20043;-91
2023/04/23 11:17:13;;;;;;;7.53;3.00;;;17.60;80.10;;;;;;5069810;28;20128;-92
2023/04/23 11:19:40;;;;;;;10.52;3.33;;;17.60;83.10;;;;;;5089603;28;20180;-91
2023/04/23 11:22:14;;;;;;;9.05;3.42;;;17.70;83.50;;;;;;5110783;28;20215;-91
2023/04/23 11:24:41;;;;;;;8.98;2.85;;;17.60;79.60;;;;;;5089685;28;20111;-91
2023/04/23 11:27:09;;;;;;;7.22;2.28;;;17.70;80.40;;;;;;5072242;28;20614;-91
2023/04/23 11:29:37;;;;;;;8.75;2.40;;;17.90;81.00;;;;;;5090101;28;20169;-91
2023/04/23 11:32:04;;;;;;;6.90;2.60;;;18.00;79.00;;;;;;5090494;28;20031;-91
2023/04/23 11:34:32;;;;;;;10.18;2.80;;;18.00;75.60;;;;;;5070379;28;20044;-91
2023/04/23 11:36:58;;;;;;;9.00;2.30;;;18.00;77.20;;;;;;5068907;28;20036;-91
2023/04/23 11:39:24;;;;;;;9.20;2.53;;;18.00;75.90;;;;;;5085284;28;20051;-91
2023/04/23 11:41:51;;;;;;;8.60;2.53;;;17.80;75.00;;;;;;5068706;28;20040;-91
2023/04/23 11:44:18;;;;;;;8.95;2.67;;;17.90;76.90;;;;;;5081372;28;20097;-91
2023/04/23 11:46:46;;;;;;;8.40;2.50;;;17.80;75.30;;;;;;5061939;28;20032;-91
2023/04/23 11:49:12;;;;;;;8.82;2.50;;;17.80;75.40;;;;;;5083700;28;20071;-91
2023/04/23 11:51:43;;;;;;;8.90;2.70;;;17.90;76.90;;;;;;5068041;28;20036;-90
2023/04/23 11:54:09;;;;;;;8.55;2.35;;;17.90;74.80;;;;;;5082698;28;20039;-91
2023/04/23 11:56:36;;;;;;;8.88;2.13;;;17.80;75.00;;;;;;5105234;28;20538;-91
2023/04/23 11:59:02;;;;;;;8.20;2.30;;;17.90;73.70;;;;;;5102559;28;20433;-91
2023/04/23 12:01:42;;;;;;;8.68;2.45;;;18.00;72.70;;;;;;5096374;28;20036;-91
2023/04/23 12:04:20;;;;;;;7.72;2.17;;;18.30;72.00;;;;;;5060875;28;20032;-91
2023/04/23 12:06:48;;;;;;;7.72;2.08;;;18.50;71.70;;;;;;5060836;28;20118;-91
2023/04/23 12:09:16;;;;;;;8.95;2.08;;;18.60;70.00;;;;;;5070069;28;20031;-92
2023/04/23 12:11:43;;;;;;;6.88;1.70;;;18.60;69.10;;;;;;5067542;28;20114;-90
2023/04/23 12:14:11;;;;;;;8.73;2.10;;;18.70;66.20;;;;;;5068298;28;20075;-91
2023/04/23 12:16:37;;;;;;;8.73;2.22;;;18.70;66.40;;;;;;5068594;28;20489;-90
2023/04/23 12:19:06;;;;;;;10.65;2.40;;;18.60;67.80;;;;;;5070812;28;20485;-91
2023/04/23 12:21:33;;;;;;;7.80;2.10;;;18.60;67.80;;;;;;5065478;28;20034;-91
2023/04/23 12:23:58;;;;;;;7.88;2.03;;;18.70;67.90;;;;;;5068728;28;20396;-91
2023/04/23 12:26:25;;;;;;;8.30;2.30;;;18.60;67.10;;;;;;5086843;28;20497;-92
2023/04/23 12:28:55;;;;;;;9.50;2.78;;;18.70;69.50;;;;;;5064222;28;20025;-91
2023/04/23 12:31:29;;;;;;;8.05;2.60;;;18.70;67.90;;;;;;5058886;28;20162;-91
2023/04/23 12:34:06;;;;;;;7.80;2.45;;;18.70;69.80;;;;;;5058586;28;20047;-91